createdAt,value
2018-10-02T00:01:31.948Z,19.30
2018-10-02T00:03:59.563Z,19.30
2018-10-02T00:06:27.161Z,19.30
2018-10-02T00:08:54.783Z,19.20
2018-10-02T00:11:27.844Z,19.20
2018-10-02T00:14:00.990Z,19.20
2018-10-02T00:16:28.676Z,19.20
2018-10-02T00:18:56.256Z,19.20
2018-10-02T00:21:23.836Z,19.20
2018-10-02T00:23:51.520Z,19.20
2018-10-02T00:26:19.082Z,19.20
2018-10-02T00:28:46.675Z,19.20
2018-10-02T00:31:14.695Z,19.20
2018-10-02T00:33:42.256Z,19.20
2018-10-02T00:36:10.104Z,19.20
2018-10-02T00:38:37.912Z,19.20
2018-10-02T00:41:05.960Z,19.20
2018-10-02T00:43:33.924Z,19.20
2018-10-02T00:46:02.422Z,19.20
2018-10-02T00:48:29.991Z,19.20
2018-10-02T00:50:57.564Z,19.20
2018-10-02T00:53:25.115Z,19.20
2018-10-02T00:55:52.679Z,19.20
2018-10-02T00:58:20.248Z,19.20
2018-10-02T01:00:47.799Z,19.20
2018-10-02T01:03:15.360Z,19.20
2018-10-02T01:05:43.188Z,19.20
2018-10-02T01:08:11.125Z,19.20
2018-10-02T01:10:39.071Z,19.20
2018-10-02T01:13:07.506Z,19.20
2018-10-02T01:15:35.376Z,19.20
2018-10-02T01:18:03.691Z,19.20
2018-10-02T01:20:31.492Z,19.20
2018-10-02T01:22:59.051Z,19.20
2018-10-02T01:25:26.627Z,19.20
2018-10-02T01:27:54.239Z,19.20
2018-10-02T01:30:22.157Z,19.20
2018-10-02T01:32:49.798Z,19.10
2018-10-02T01:35:17.387Z,19.20
2018-10-02T01:37:45.430Z,19.20
2018-10-02T01:40:13.295Z,19.20
2018-10-02T01:42:41.195Z,19.10
2018-10-02T01:45:09.989Z,19.10
2018-10-02T01:47:38.191Z,19.10
2018-10-02T01:50:06.955Z,19.10
2018-10-02T01:52:35.333Z,19.10
2018-10-02T01:55:04.020Z,19.20
2018-10-02T01:57:32.022Z,19.20
2018-10-02T01:59:59.630Z,19.10
2018-10-02T02:02:27.216Z,19.20
2018-10-02T02:04:54.780Z,19.20
2018-10-02T02:07:22.354Z,19.10
2018-10-02T02:09:49.971Z,19.10
2018-10-02T02:12:17.533Z,19.10
2018-10-02T02:14:45.093Z,19.10
2018-10-02T02:17:12.675Z,19.20
2018-10-02T02:19:40.585Z,19.10
2018-10-02T02:22:08.492Z,19.10
2018-10-02T02:24:36.883Z,19.10
2018-10-02T02:27:05.228Z,19.10
2018-10-02T02:29:33.763Z,19.10
2018-10-02T02:32:01.520Z,19.20
2018-10-02T02:34:29.232Z,19.10
2018-10-02T02:36:57.073Z,19.10
2018-10-02T02:39:25.424Z,19.10
2018-10-02T02:41:53.036Z,19.10
2018-10-02T02:44:20.670Z,19.10
2018-10-02T02:46:48.210Z,19.10
2018-10-02T02:49:21.300Z,19.10
2018-10-02T02:51:48.997Z,19.10
2018-10-02T02:54:16.573Z,19.10
2018-10-02T02:56:44.165Z,19.10
2018-10-02T02:59:11.731Z,19.10
2018-10-02T03:01:39.637Z,19.10
2018-10-02T03:04:07.548Z,19.10
2018-10-02T03:06:35.535Z,19.10
2018-10-02T03:09:03.301Z,19.10
2018-10-02T03:11:31.165Z,19.10
2018-10-02T03:13:58.754Z,19.10
2018-10-02T03:16:26.314Z,19.10
2018-10-02T03:18:53.887Z,19.10
2018-10-02T03:21:21.448Z,19.10
2018-10-02T03:23:49.079Z,19.10
2018-10-02T03:26:16.668Z,19.10
2018-10-02T03:28:44.252Z,19.10
2018-10-02T03:31:12.135Z,19.10
2018-10-02T03:33:39.967Z,19.10
2018-10-02T03:36:07.645Z,19.10
2018-10-02T03:38:35.840Z,19.10
2018-10-02T03:41:03.681Z,19.10
2018-10-02T03:43:31.304Z,19.10
2018-10-02T03:45:58.855Z,19.10
2018-10-02T03:48:26.440Z,19.00
2018-10-02T03:50:54.013Z,19.10
2018-10-02T03:53:21.599Z,19.10
2018-10-02T03:55:49.276Z,19.00
2018-10-02T03:58:16.807Z,19.10
2018-10-02T04:00:44.380Z,19.00
2018-10-02T04:03:12.503Z,19.00
2018-10-02T04:05:40.485Z,19.00
2018-10-02T04:08:08.309Z,19.10
2018-10-02T04:10:36.720Z,19.10
2018-10-02T04:13:05.653Z,19.10
2018-10-02T04:15:33.704Z,19.10
2018-10-02T04:18:01.572Z,19.20
2018-10-02T04:20:29.283Z,19.10
2018-10-02T04:22:56.889Z,19.20
2018-10-02T04:25:24.567Z,19.20
2018-10-02T04:27:52.206Z,19.20
2018-10-02T04:30:19.782Z,19.20
2018-10-02T04:32:47.464Z,19.30
2018-10-02T04:35:15.024Z,19.30
2018-10-02T04:37:42.701Z,19.30
2018-10-02T04:40:10.836Z,19.30
2018-10-02T04:42:38.873Z,19.30
2018-10-02T04:45:07.389Z,19.30
2018-10-02T04:47:35.722Z,19.30
2018-10-02T04:50:03.978Z,19.30
2018-10-02T04:52:31.604Z,19.30
2018-10-02T04:54:59.224Z,19.30
2018-10-02T04:57:26.772Z,19.30
2018-10-02T04:59:54.308Z,19.30
2018-10-02T05:02:21.985Z,19.30
2018-10-02T05:04:49.534Z,19.30
2018-10-02T05:07:17.274Z,19.30
2018-10-02T05:09:44.848Z,19.30
2018-10-02T05:12:12.715Z,19.30
2018-10-02T05:14:40.801Z,19.40
2018-10-02T05:17:08.937Z,19.30
2018-10-02T05:19:37.183Z,19.30
2018-10-02T05:22:05.014Z,19.40
2018-10-02T05:24:32.921Z,19.30
2018-10-02T05:27:00.771Z,19.40
2018-10-02T05:29:28.308Z,19.30
2018-10-02T05:31:55.861Z,19.40
2018-10-02T05:34:23.539Z,19.30
2018-10-02T05:36:51.084Z,19.30
2018-10-02T05:39:18.720Z,19.40
2018-10-02T05:41:46.321Z,19.30
2018-10-02T05:44:14.419Z,19.30
2018-10-02T05:46:42.212Z,19.30
2018-10-02T05:49:10.260Z,19.40
2018-10-02T05:51:39.972Z,19.30
2018-10-02T05:54:08.180Z,19.40
2018-10-02T05:56:36.270Z,19.30
2018-10-02T05:59:08.216Z,19.30
2018-10-02T06:01:36.693Z,19.30
2018-10-02T06:04:04.840Z,19.40
2018-10-02T06:06:32.603Z,19.30
2018-10-02T06:09:00.246Z,19.30
2018-10-02T06:11:27.849Z,19.30
2018-10-02T06:13:55.469Z,19.30
2018-10-02T06:16:23.073Z,19.40
2018-10-02T06:18:50.711Z,19.40
2018-10-02T06:21:18.314Z,19.30
2018-10-02T06:23:45.970Z,19.30
2018-10-02T06:26:13.679Z,19.40
2018-10-02T06:28:41.611Z,19.30
2018-10-02T06:31:13.659Z,19.40
2018-10-02T06:33:41.714Z,19.40
2018-10-02T06:36:09.533Z,19.30
2018-10-02T06:38:38.030Z,19.40
2018-10-02T06:41:06.236Z,19.30
2018-10-02T06:43:34.256Z,19.40
2018-10-02T06:46:01.847Z,19.30
2018-10-02T06:48:29.743Z,19.30
2018-10-02T06:50:57.452Z,19.30
2018-10-02T06:53:24.956Z,19.30
2018-10-02T06:55:52.545Z,19.30
2018-10-02T06:58:20.148Z,19.40
2018-10-02T07:00:47.776Z,19.30
2018-10-02T07:03:15.475Z,19.30
2018-10-02T07:05:43.195Z,19.30
2018-10-02T07:08:11.191Z,19.30
2018-10-02T07:10:39.546Z,19.30
2018-10-02T07:13:07.751Z,19.30
2018-10-02T07:15:35.836Z,19.30
2018-10-02T07:18:03.678Z,19.30
2018-10-02T07:20:31.377Z,19.30
2018-10-02T07:22:58.896Z,19.30
2018-10-02T07:25:26.476Z,19.30
2018-10-02T07:27:54.286Z,19.30
2018-10-02T07:30:21.793Z,19.30
2018-10-02T07:32:49.445Z,19.30
2018-10-02T07:35:17.070Z,19.40
2018-10-02T07:37:44.635Z,19.40
2018-10-02T07:40:12.293Z,19.30
2018-10-02T07:42:39.899Z,19.30
2018-10-02T07:45:07.670Z,19.30
2018-10-02T07:47:35.372Z,19.30
2018-10-02T07:50:04.192Z,19.30
2018-10-02T07:52:31.911Z,19.30
2018-10-02T07:54:59.881Z,19.30
2018-10-02T07:57:27.877Z,19.30
2018-10-02T07:59:55.949Z,19.30
2018-10-02T08:02:23.625Z,19.30
2018-10-02T08:04:51.398Z,19.30
2018-10-02T08:07:18.928Z,19.30
2018-10-02T08:09:46.970Z,19.30
2018-10-02T08:12:14.694Z,19.30
2018-10-02T08:14:42.423Z,19.30
2018-10-02T08:17:09.994Z,19.30
2018-10-02T08:19:38.192Z,19.30
2018-10-02T08:22:06.001Z,19.30
2018-10-02T08:24:33.906Z,19.30
2018-10-02T08:27:02.035Z,19.30
2018-10-02T08:29:30.171Z,19.30
2018-10-02T08:31:58.345Z,19.40
2018-10-02T08:34:27.283Z,19.30
2018-10-02T08:36:55.560Z,19.30
2018-10-02T08:39:23.263Z,19.40
2018-10-02T08:41:50.922Z,19.30
2018-10-02T08:44:18.472Z,19.30
2018-10-02T08:46:46.017Z,19.40
2018-10-02T08:49:13.623Z,19.30
2018-10-02T08:51:41.280Z,19.40
2018-10-02T08:54:08.919Z,19.30
2018-10-02T08:56:36.554Z,19.30
2018-10-02T08:59:04.148Z,19.30
2018-10-02T09:01:32.204Z,19.30
2018-10-02T09:04:00.025Z,19.30
2018-10-02T09:06:28.115Z,19.30
2018-10-02T09:08:56.072Z,19.30
2018-10-02T09:11:24.442Z,19.30
2018-10-02T09:13:53.484Z,19.30
2018-10-02T09:16:21.334Z,19.30
2018-10-02T09:18:48.964Z,19.30
2018-10-02T09:21:16.647Z,19.30
2018-10-02T09:23:44.324Z,19.30
2018-10-02T09:26:12.013Z,19.30
2018-10-02T09:28:41.850Z,19.30
2018-10-02T09:31:14.956Z,19.30
2018-10-02T09:33:48.157Z,19.30
2018-10-02T09:36:21.317Z,19.30
2018-10-02T09:38:54.858Z,19.30
2018-10-02T09:41:29.153Z,19.20
2018-10-02T09:43:58.941Z,19.20
2018-10-02T09:46:27.225Z,19.30
2018-10-02T09:48:55.397Z,19.20
2018-10-02T09:51:23.627Z,19.30
2018-10-02T09:53:52.013Z,19.30
2018-10-02T09:56:35.908Z,19.30
2018-10-02T09:59:03.750Z,19.30
2018-10-02T10:07:15.112Z,19.30
2018-10-02T10:09:42.813Z,19.20
2018-10-02T10:12:16.582Z,19.20
2018-10-02T10:14:44.280Z,19.20
2018-10-02T10:17:13.516Z,19.20
2018-10-02T10:19:43.912Z,19.30
2018-10-02T10:22:11.701Z,19.20
2018-10-02T10:24:39.361Z,19.10
2018-10-02T10:27:06.979Z,19.20
2018-10-02T10:29:34.747Z,19.20
2018-10-02T10:32:02.437Z,19.20
2018-10-02T10:34:30.041Z,19.20
2018-10-02T10:36:57.907Z,19.20
2018-10-02T10:39:25.683Z,19.20
2018-10-02T10:41:53.485Z,19.20
2018-10-02T10:44:21.318Z,19.20
2018-10-02T10:46:50.048Z,19.20
2018-10-02T10:49:17.939Z,19.10
2018-10-02T10:51:46.325Z,19.20
2018-10-02T10:54:14.184Z,19.20
2018-10-02T10:56:41.964Z,19.20
2018-10-02T10:59:10.079Z,19.20
2018-10-02T11:01:38.081Z,19.10
2018-10-02T11:04:06.284Z,19.10
2018-10-02T11:06:34.031Z,19.10
2018-10-02T11:09:01.590Z,19.10
2018-10-02T11:11:29.189Z,19.10
2018-10-02T11:13:56.857Z,19.10
2018-10-02T11:16:24.495Z,19.10
2018-10-02T11:18:52.183Z,19.00
2018-10-02T11:21:19.820Z,19.10
2018-10-02T11:23:47.512Z,19.10
2018-10-02T11:26:15.073Z,19.10
2018-10-02T11:28:43.115Z,19.00
2018-10-02T11:31:10.854Z,19.10
2018-10-02T11:33:38.943Z,19.00
2018-10-02T11:36:06.939Z,19.00
2018-10-02T11:38:34.787Z,19.00
2018-10-02T11:41:02.437Z,19.00
2018-10-02T11:43:30.009Z,19.00
2018-10-02T11:45:57.615Z,19.00
2018-10-02T11:48:25.307Z,19.00
2018-10-02T11:50:52.955Z,19.00
2018-10-02T11:53:20.519Z,19.00
2018-10-02T11:55:48.149Z,19.00
2018-10-02T11:58:15.645Z,19.00
2018-10-02T12:00:43.905Z,19.00
2018-10-02T12:03:11.753Z,18.90
2018-10-02T12:05:39.728Z,18.90
2018-10-02T12:08:07.565Z,18.90
2018-10-02T12:10:35.300Z,18.90
2018-10-02T12:13:03.087Z,18.90
2018-10-02T12:15:31.452Z,18.90
2018-10-02T12:17:59.060Z,18.90
2018-10-02T12:20:26.727Z,18.90
2018-10-02T12:22:54.355Z,18.90
2018-10-02T12:25:21.984Z,18.90
2018-10-02T12:27:49.544Z,18.90
2018-10-02T12:30:17.230Z,18.90
2018-10-02T12:32:45.034Z,18.90
2018-10-02T12:35:13.294Z,18.90
2018-10-02T12:37:41.137Z,18.90
2018-10-02T12:40:09.363Z,18.90
2018-10-02T12:42:37.526Z,18.90
2018-10-02T12:45:05.646Z,18.90
2018-10-02T12:47:33.236Z,18.90
2018-10-02T12:50:00.896Z,18.90
2018-10-02T12:52:28.981Z,18.90
2018-10-02T12:54:56.489Z,18.80
2018-10-02T12:57:24.085Z,18.90
2018-10-02T12:59:51.637Z,18.90
2018-10-02T13:02:19.281Z,18.80
2018-10-02T13:04:46.845Z,18.90
2018-10-02T13:07:14.476Z,18.90
2018-10-02T13:09:42.334Z,18.90
2018-10-02T13:12:10.442Z,19.00
2018-10-02T13:14:38.156Z,19.00
2018-10-02T13:17:05.916Z,19.00
2018-10-02T13:19:33.906Z,19.00
2018-10-02T13:22:01.688Z,19.00
2018-10-02T13:24:29.375Z,19.00
2018-10-02T13:26:57.000Z,19.00
2018-10-02T13:29:24.587Z,19.00
2018-10-02T13:31:52.197Z,19.00
2018-10-02T13:34:19.821Z,19.00
2018-10-02T13:36:47.419Z,19.00
2018-10-02T13:39:14.972Z,18.90
2018-10-02T13:41:42.584Z,19.00
2018-10-02T13:44:10.224Z,18.90
2018-10-02T13:46:38.136Z,18.80
2018-10-02T13:49:06.085Z,18.80
2018-10-02T13:51:33.970Z,18.70
2018-10-02T13:54:01.722Z,18.80
2018-10-02T13:56:29.578Z,18.80
2018-10-02T13:58:57.180Z,18.70
2018-10-02T14:01:24.878Z,18.60
2018-10-02T14:03:52.536Z,18.60
2018-10-02T14:06:20.121Z,18.50
2018-10-02T14:08:47.659Z,18.60
2018-10-02T14:11:15.354Z,18.60
2018-10-02T14:13:43.036Z,18.70
2018-10-02T14:16:10.763Z,18.70
2018-10-02T14:18:38.488Z,18.70
2018-10-02T14:21:06.407Z,18.70
2018-10-02T14:23:34.310Z,18.80
2018-10-02T14:26:02.239Z,18.80
2018-10-02T14:28:30.113Z,18.80
2018-10-02T14:30:57.906Z,18.80
2018-10-02T14:33:26.962Z,18.70
2018-10-02T14:36:02.699Z,18.80
2018-10-02T14:38:30.691Z,18.80
2018-10-02T14:40:58.535Z,18.80
2018-10-02T14:43:26.895Z,18.80
2018-10-02T14:45:54.628Z,18.80
2018-10-02T14:48:22.295Z,18.80
2018-10-02T14:50:50.400Z,18.80
2018-10-02T14:53:18.119Z,18.80
2018-10-02T14:55:45.879Z,18.80
2018-10-02T14:58:20.388Z,18.80
2018-10-02T15:00:48.078Z,18.70
2018-10-02T15:03:15.725Z,18.80
2018-10-02T15:05:43.895Z,18.80
2018-10-02T15:08:11.746Z,18.70
2018-10-02T15:10:44.791Z,18.80
2018-10-02T15:13:12.401Z,18.80
2018-10-02T15:15:39.997Z,18.80
2018-10-02T15:18:08.009Z,18.80
2018-10-02T15:20:35.723Z,18.90
2018-10-02T15:23:03.703Z,18.90
2018-10-02T15:25:31.596Z,18.80
2018-10-02T15:27:59.267Z,18.70
2018-10-02T15:30:26.981Z,18.70
2018-10-02T15:32:54.577Z,18.70
2018-10-02T15:35:22.138Z,18.70
2018-10-02T15:37:50.001Z,18.80
2018-10-02T15:40:18.824Z,18.80
2018-10-02T15:42:47.121Z,19.00
2018-10-02T15:45:14.985Z,19.10
2018-10-02T15:47:42.638Z,19.10
2018-10-02T15:50:10.404Z,19.00
2018-10-02T15:52:38.083Z,19.10
2018-10-02T15:55:06.033Z,19.10
2018-10-02T15:57:33.843Z,19.10
2018-10-02T16:00:01.634Z,19.20
2018-10-02T16:02:29.247Z,19.10
2018-10-02T16:04:56.895Z,19.10
2018-10-02T16:07:24.496Z,19.10
2018-10-02T16:09:52.526Z,19.20
2018-10-02T16:12:21.095Z,19.20
2018-10-02T16:14:48.684Z,19.20
2018-10-02T16:17:16.305Z,19.20
2018-10-02T16:19:44.040Z,19.20
2018-10-02T16:22:11.660Z,19.20
2018-10-02T16:24:39.383Z,19.20
2018-10-02T16:27:06.937Z,19.20
2018-10-02T16:29:34.609Z,19.20
2018-10-02T16:32:02.195Z,19.20
2018-10-02T16:34:29.788Z,19.20
2018-10-02T16:36:57.765Z,19.20
2018-10-02T16:39:25.575Z,19.20
2018-10-02T16:41:53.378Z,19.20
2018-10-02T16:44:21.074Z,19.10
2018-10-02T16:46:48.706Z,19.00
2018-10-02T16:49:16.312Z,19.10
2018-10-02T16:51:43.896Z,19.10
2018-10-02T16:54:11.470Z,19.10
2018-10-02T16:56:39.108Z,19.10
2018-10-02T16:59:06.701Z,19.20
2018-10-02T17:01:41.784Z,19.20
2018-10-02T17:04:10.688Z,19.20
2018-10-02T17:06:38.772Z,19.20
2018-10-02T17:09:07.061Z,19.20
2018-10-02T17:11:34.688Z,19.20
2018-10-02T17:14:02.514Z,19.30
2018-10-02T17:16:34.133Z,19.20
2018-10-02T17:19:02.003Z,19.30
2018-10-02T17:21:29.931Z,19.20
2018-10-02T17:23:57.803Z,19.20
2018-10-02T17:26:25.693Z,19.20
2018-10-02T17:28:53.610Z,19.20
2018-10-02T17:31:21.516Z,19.30
2018-10-02T17:33:50.297Z,19.20
2018-10-02T17:36:20.576Z,19.20
2018-10-02T17:38:48.887Z,19.30
2018-10-02T17:41:19.205Z,19.20
2018-10-02T17:43:46.888Z,19.20
2018-10-02T17:46:14.603Z,19.20
2018-10-02T17:48:43.221Z,19.30
2018-10-02T17:51:11.003Z,19.20
2018-10-02T17:53:38.638Z,19.20
2018-10-02T17:56:13.769Z,19.20
2018-10-02T17:58:41.587Z,19.20
2018-10-02T18:01:09.346Z,19.20
2018-10-02T18:03:37.035Z,19.20
2018-10-02T18:06:04.945Z,19.20
2018-10-02T18:08:33.650Z,19.20
2018-10-02T18:11:01.441Z,19.20
2018-10-02T18:13:29.362Z,19.20
2018-10-02T18:15:58.443Z,19.20
2018-10-02T18:18:26.326Z,19.10
2018-10-02T18:20:55.096Z,19.10
2018-10-02T18:23:23.439Z,19.10
2018-10-02T18:25:51.374Z,19.10
2018-10-02T18:28:19.754Z,19.10
2018-10-02T18:30:47.668Z,19.10
2018-10-02T18:33:15.272Z,19.00
2018-10-02T18:35:42.894Z,19.10
2018-10-02T18:38:10.708Z,19.00
2018-10-02T18:43:11.815Z,19.00
2018-10-02T18:45:39.779Z,19.00
2018-10-02T18:48:15.482Z,19.00
2018-10-02T18:50:43.141Z,19.00
2018-10-02T18:53:10.900Z,19.00
2018-10-02T18:55:38.549Z,19.00
2018-10-02T18:58:06.903Z,19.00
2018-10-02T19:00:34.548Z,19.00
2018-10-02T19:03:02.337Z,19.00
2018-10-02T19:05:30.076Z,19.10
2018-10-02T19:07:57.919Z,19.00
2018-10-02T19:10:26.107Z,19.00
2018-10-02T19:12:54.736Z,19.00
2018-10-02T19:15:23.241Z,19.00
2018-10-02T19:17:51.425Z,19.10
2018-10-02T19:20:25.650Z,19.10
2018-10-02T19:22:54.281Z,19.00
2018-10-02T19:25:28.902Z,19.00
2018-10-02T19:27:57.306Z,19.00
2018-10-02T19:30:30.605Z,19.00
2018-10-02T19:32:59.135Z,19.10
2018-10-02T19:35:27.766Z,19.00
2018-10-02T19:38:00.982Z,19.00
2018-10-02T19:40:29.166Z,19.00
2018-10-02T19:42:56.934Z,19.00
2018-10-02T19:45:30.047Z,19.00
2018-10-02T19:47:57.734Z,19.00
2018-10-02T19:50:25.732Z,19.00
2018-10-02T19:52:53.463Z,19.00
2018-10-02T19:55:21.308Z,19.00
2018-10-02T19:57:49.036Z,18.90
2018-10-02T20:00:16.705Z,18.90
2018-10-02T20:02:44.449Z,18.90
2018-10-02T20:05:12.090Z,18.90
2018-10-02T20:07:39.713Z,18.90
2018-10-02T20:10:07.401Z,19.00
2018-10-02T20:12:35.006Z,19.00
2018-10-02T20:15:02.595Z,19.10
2018-10-02T20:17:31.211Z,19.10
2018-10-02T20:19:58.910Z,19.10
2018-10-02T20:22:26.676Z,19.00
2018-10-02T20:25:00.101Z,19.00
2018-10-02T20:27:28.521Z,19.00
2018-10-02T20:29:56.248Z,19.00
2018-10-02T20:32:24.196Z,19.00
2018-10-02T20:34:52.502Z,19.00
2018-10-02T20:37:23.382Z,19.00
2018-10-02T20:39:51.608Z,19.00
2018-10-02T20:42:19.388Z,19.00
2018-10-02T20:44:47.135Z,19.00
2018-10-02T20:47:14.744Z,19.00
2018-10-02T20:49:42.437Z,19.00
2018-10-02T20:52:10.064Z,19.10
2018-10-02T20:54:37.796Z,19.00
2018-10-02T20:57:05.434Z,19.00
2018-10-02T20:59:32.992Z,19.00
2018-10-02T21:02:00.563Z,19.00
2018-10-02T21:04:28.280Z,19.00
2018-10-02T21:06:56.240Z,19.00
2018-10-02T21:09:24.121Z,19.00
2018-10-02T21:11:52.376Z,19.00
2018-10-02T21:14:19.928Z,19.00
2018-10-02T21:16:47.616Z,19.00
2018-10-02T21:19:15.181Z,19.00
2018-10-02T21:21:42.783Z,19.10
2018-10-02T21:24:10.302Z,19.00
2018-10-02T21:26:38.271Z,19.00
2018-10-02T21:29:05.855Z,19.00
2018-10-02T21:31:33.668Z,19.00
2018-10-02T21:34:01.439Z,19.00
2018-10-02T21:36:29.196Z,19.00
2018-10-02T21:38:56.852Z,19.10
2018-10-02T21:41:24.861Z,19.10
2018-10-02T21:43:53.238Z,19.00
2018-10-02T21:46:21.426Z,19.10
2018-10-02T21:48:49.370Z,19.00
2018-10-02T21:51:17.009Z,19.10
2018-10-02T21:53:44.543Z,19.10
2018-10-02T21:56:12.110Z,19.10
2018-10-02T21:58:39.764Z,19.10
2018-10-02T22:01:07.304Z,19.10
2018-10-02T22:03:37.043Z,19.10
2018-10-02T22:06:05.719Z,19.10
2018-10-02T22:08:33.288Z,19.10
2018-10-02T22:11:00.869Z,19.10
2018-10-02T22:13:28.564Z,19.00
2018-10-02T22:15:56.734Z,19.10
2018-10-02T22:18:24.897Z,19.10
2018-10-02T22:20:52.906Z,19.10
2018-10-02T22:23:20.598Z,19.00
2018-10-02T22:25:48.220Z,19.00
2018-10-02T22:28:15.812Z,19.10
2018-10-02T22:30:43.401Z,19.00
2018-10-02T22:33:11.117Z,19.00
2018-10-02T22:35:38.581Z,19.00
2018-10-02T22:38:06.153Z,19.00
2018-10-02T22:40:33.748Z,19.00
2018-10-02T22:43:01.282Z,19.00
2018-10-02T22:45:28.881Z,19.00
2018-10-02T22:47:56.670Z,19.00
2018-10-02T22:50:24.420Z,19.00
2018-10-02T22:52:52.075Z,19.00
2018-10-02T22:55:19.711Z,19.00
2018-10-02T22:57:47.269Z,19.00
2018-10-02T23:00:14.898Z,19.00
2018-10-02T23:02:42.494Z,19.00
2018-10-02T23:05:10.072Z,19.00
2018-10-02T23:07:37.786Z,19.00
2018-10-02T23:10:05.312Z,19.00
2018-10-02T23:12:32.924Z,19.00
2018-10-02T23:15:00.754Z,19.00
2018-10-02T23:17:28.377Z,19.00
2018-10-02T23:19:56.391Z,19.00
2018-10-02T23:22:24.320Z,19.10
2018-10-02T23:24:52.317Z,19.00
2018-10-02T23:27:19.904Z,19.10
2018-10-02T23:29:47.576Z,19.10
2018-10-02T23:32:15.167Z,19.00
2018-10-02T23:34:42.724Z,19.00
2018-10-02T23:37:10.422Z,19.00
2018-10-02T23:39:37.971Z,19.00
2018-10-02T23:42:05.493Z,19.00
2018-10-02T23:44:33.899Z,19.00
2018-10-02T23:47:01.446Z,19.00
2018-10-02T23:49:29.520Z,19.00
2018-10-02T23:51:57.439Z,19.00
2018-10-02T23:54:25.215Z,19.00
2018-10-02T23:56:53.296Z,19.00
2018-10-02T23:59:21.189Z,19.10
